sensor_id;sensor_type;location;lat;lon;timestamp;P1;durP1;ratioP1;P2;durP2;ratioP2
8632;SDS011;4354;49.832;10.746;2022-10-13T00:00:59;34.07;;;25.60;;
8632;SDS011;4354;49.832;10.746;2022-10-13T00:03:26;40.83;;;23.03;;
8632;SDS011;4354;49.832;10.746;2022-10-13T00:05:52;34.77;;;24.80;;
8632;SDS011;4354;49.832;10.746;2022-10-13T00:08:20;46.17;;;25.77;;
8632;SDS011;4354;49.832;10.746;2022-10-13T00:10:48;48.60;;;26.43;;
8632;SDS011;4354;49.832;10.746;2022-10-13T00:13:16;34.77;;;26.03;;
8632;SDS011;4354;49.832;10.746;2022-10-13T00:15:44;34.63;;;24.87;;
8632;SDS011;4354;49.832;10.746;2022-10-13T00:18:12;31.00;;;24.17;;
8632;SDS011;4354;49.832;10.746;2022-10-13T00:20:40;34.23;;;25.17;;
8632;SDS011;4354;49.832;10.746;2022-10-13T00:23:09;29.50;;;24.33;;
8632;SDS011;4354;49.832;10.746;2022-10-13T00:25:40;33.87;;;24.23;;
8632;SDS011;4354;49.832;10.746;2022-10-13T00:28:08;35.77;;;25.60;;
8632;SDS011;4354;49.832;10.746;2022-10-13T00:30:36;38.10;;;25.87;;
8632;SDS011;4354;49.832;10.746;2022-10-13T00:33:04;52.33;;;25.87;;
8632;SDS011;4354;49.832;10.746;2022-10-13T00:35:31;62.70;;;25.70;;
8632;SDS011;4354;49.832;10.746;2022-10-13T00:37:58;44.70;;;23.97;;
8632;SDS011;4354;49.832;10.746;2022-10-13T00:40:25;35.33;;;24.30;;
8632;SDS011;4354;49.832;10.746;2022-10-13T00:42:52;29.17;;;22.73;;
8632;SDS011;4354;49.832;10.746;2022-10-13T00:45:21;32.13;;;25.33;;
8632;SDS011;4354;49.832;10.746;2022-10-13T00:47:55;33.87;;;24.97;;
8632;SDS011;4354;49.832;10.746;2022-10-13T00:50:32;33.60;;;24.83;;
8632;SDS011;4354;49.832;10.746;2022-10-13T00:53:03;32.70;;;24.57;;
8632;SDS011;4354;49.832;10.746;2022-10-13T00:55:33;35.80;;;24.50;;
8632;SDS011;4354;49.832;10.746;2022-10-13T00:58:03;41.27;;;25.23;;
8632;SDS011;4354;49.832;10.746;2022-10-13T01:00:33;40.87;;;26.83;;
8632;SDS011;4354;49.832;10.746;2022-10-13T01:03:01;43.20;;;27.20;;
8632;SDS011;4354;49.832;10.746;2022-10-13T01:05:28;32.80;;;24.30;;
8632;SDS011;4354;49.832;10.746;2022-10-13T01:07:56;35.70;;;25.43;;
8632;SDS011;4354;49.832;10.746;2022-10-13T01:11:11;29.63;;;24.60;;
8632;SDS011;4354;49.832;10.746;2022-10-13T01:19:24;41.77;;;25.47;;
8632;SDS011;4354;49.832;10.746;2022-10-13T01:27:20;36.03;;;25.73;;
8632;SDS011;4354;49.832;10.746;2022-10-13T01:32:42;36.90;;;25.47;;
8632;SDS011;4354;49.832;10.746;2022-10-13T01:37:55;38.30;;;25.97;;
8632;SDS011;4354;49.832;10.746;2022-10-13T01:40:31;39.43;;;25.83;;
8632;SDS011;4354;49.832;10.746;2022-10-13T01:45:37;32.77;;;24.47;;
8632;SDS011;4354;49.832;10.746;2022-10-13T01:48:09;33.17;;;25.33;;
8632;SDS011;4354;49.832;10.746;2022-10-13T01:50:36;40.77;;;27.40;;
8632;SDS011;4354;49.832;10.746;2022-10-13T01:53:04;43.80;;;27.20;;
8632;SDS011;4354;49.832;10.746;2022-10-13T01:55:33;42.37;;;26.97;;
8632;SDS011;4354;49.832;10.746;2022-10-13T01:58:00;34.10;;;25.60;;
8632;SDS011;4354;49.832;10.746;2022-10-13T02:00:27;35.20;;;25.20;;
8632;SDS011;4354;49.832;10.746;2022-10-13T02:03:16;33.93;;;25.83;;
8632;SDS011;4354;49.832;10.746;2022-10-13T02:05:57;32.87;;;24.80;;
8632;SDS011;4354;49.832;10.746;2022-10-13T02:11:30;32.27;;;24.33;;
8632;SDS011;4354;49.832;10.746;2022-10-13T02:16:34;34.10;;;23.77;;
8632;SDS011;4354;49.832;10.746;2022-10-13T02:19:05;33.27;;;25.80;;
8632;SDS011;4354;49.832;10.746;2022-10-13T02:21:35;28.83;;;22.73;;
8632;SDS011;4354;49.832;10.746;2022-10-13T02:24:03;35.57;;;25.47;;
8632;SDS011;4354;49.832;10.746;2022-10-13T02:26:32;33.93;;;25.13;;
8632;SDS011;4354;49.832;10.746;2022-10-13T02:29:06;32.27;;;24.80;;
8632;SDS011;4354;49.832;10.746;2022-10-13T02:31:41;33.47;;;24.43;;
8632;SDS011;4354;49.832;10.746;2022-10-13T02:34:10;36.30;;;25.77;;
8632;SDS011;4354;49.832;10.746;2022-10-13T02:36:38;35.30;;;23.87;;
8632;SDS011;4354;49.832;10.746;2022-10-13T02:39:06;33.50;;;25.07;;
8632;SDS011;4354;49.832;10.746;2022-10-13T02:41:34;32.00;;;23.33;;
8632;SDS011;4354;49.832;10.746;2022-10-13T02:44:02;32.17;;;23.67;;
8632;SDS011;4354;49.832;10.746;2022-10-13T02:46:29;34.77;;;24.57;;
8632;SDS011;4354;49.832;10.746;2022-10-13T02:48:57;32.23;;;23.67;;
8632;SDS011;4354;49.832;10.746;2022-10-13T02:51:24;34.87;;;24.13;;
8632;SDS011;4354;49.832;10.746;2022-10-13T02:53:51;41.73;;;25.43;;
8632;SDS011;4354;49.832;10.746;2022-10-13T02:56:18;36.27;;;26.80;;
8632;SDS011;4354;49.832;10.746;2022-10-13T02:58:46;41.83;;;28.47;;
8632;SDS011;4354;49.832;10.746;2022-10-13T03:01:13;42.53;;;27.20;;
8632;SDS011;4354;49.832;10.746;2022-10-13T03:03:41;39.20;;;27.10;;
8632;SDS011;4354;49.832;10.746;2022-10-13T03:06:08;38.57;;;26.40;;
8632;SDS011;4354;49.832;10.746;2022-10-13T03:08:35;41.03;;;27.23;;
8632;SDS011;4354;49.832;10.746;2022-10-13T03:11:03;38.20;;;25.47;;
8632;SDS011;4354;49.832;10.746;2022-10-13T03:13:31;41.77;;;27.80;;
8632;SDS011;4354;49.832;10.746;2022-10-13T03:15:58;37.77;;;25.57;;
8632;SDS011;4354;49.832;10.746;2022-10-13T03:18:25;40.20;;;27.10;;
8632;SDS011;4354;49.832;10.746;2022-10-13T03:20:55;41.37;;;26.50;;
8632;SDS011;4354;49.832;10.746;2022-10-13T03:23:24;40.10;;;27.07;;
8632;SDS011;4354;49.832;10.746;2022-10-13T03:25:51;40.30;;;26.33;;
8632;SDS011;4354;49.832;10.746;2022-10-13T03:28:19;35.63;;;26.13;;
8632;SDS011;4354;49.832;10.746;2022-10-13T03:30:47;41.30;;;27.73;;
8632;SDS011;4354;49.832;10.746;2022-10-13T03:33:14;39.30;;;25.77;;
8632;SDS011;4354;49.832;10.746;2022-10-13T03:35:41;38.30;;;26.30;;
8632;SDS011;4354;49.832;10.746;2022-10-13T03:38:08;42.07;;;27.47;;
8632;SDS011;4354;49.832;10.746;2022-10-13T03:40:35;41.70;;;25.70;;
8632;SDS011;4354;49.832;10.746;2022-10-13T03:43:02;43.13;;;27.80;;
8632;SDS011;4354;49.832;10.746;2022-10-13T03:45:29;39.67;;;26.03;;
8632;SDS011;4354;49.832;10.746;2022-10-13T03:47:56;44.43;;;27.67;;
8632;SDS011;4354;49.832;10.746;2022-10-13T03:50:23;39.60;;;26.77;;
8632;SDS011;4354;49.832;10.746;2022-10-13T03:52:50;42.63;;;27.57;;
8632;SDS011;4354;49.832;10.746;2022-10-13T03:55:17;47.00;;;29.00;;
8632;SDS011;4354;49.832;10.746;2022-10-13T03:57:44;50.07;;;31.17;;
8632;SDS011;4354;49.832;10.746;2022-10-13T04:00:11;52.57;;;30.67;;
8632;SDS011;4354;49.832;10.746;2022-10-13T04:02:39;49.50;;;29.17;;
8632;SDS011;4354;49.832;10.746;2022-10-13T04:05:06;50.10;;;30.73;;
8632;SDS011;4354;49.832;10.746;2022-10-13T04:07:33;50.57;;;29.73;;
8632;SDS011;4354;49.832;10.746;2022-10-13T04:10:00;45.97;;;30.53;;
8632;SDS011;4354;49.832;10.746;2022-10-13T04:12:27;45.53;;;29.03;;
8632;SDS011;4354;49.832;10.746;2022-10-13T04:14:54;42.93;;;28.00;;
8632;SDS011;4354;49.832;10.746;2022-10-13T04:17:21;51.07;;;29.80;;
8632;SDS011;4354;49.832;10.746;2022-10-13T04:19:47;47.00;;;29.50;;
8632;SDS011;4354;49.832;10.746;2022-10-13T04:22:14;46.67;;;29.10;;
8632;SDS011;4354;49.832;10.746;2022-10-13T04:24:41;40.07;;;27.00;;
8632;SDS011;4354;49.832;10.746;2022-10-13T04:27:08;46.83;;;30.07;;
8632;SDS011;4354;49.832;10.746;2022-10-13T04:29:35;45.33;;;28.17;;
8632;SDS011;4354;49.832;10.746;2022-10-13T04:32:05;51.20;;;27.67;;
8632;SDS011;4354;49.832;10.746;2022-10-13T04:34:32;44.40;;;29.10;;
8632;SDS011;4354;49.832;10.746;2022-10-13T04:36:59;43.77;;;28.10;;
8632;SDS011;4354;49.832;10.746;2022-10-13T04:39:26;44.07;;;28.67;;
8632;SDS011;4354;49.832;10.746;2022-10-13T04:41:53;42.53;;;28.27;;
8632;SDS011;4354;49.832;10.746;2022-10-13T04:44:20;47.63;;;29.40;;
8632;SDS011;4354;49.832;10.746;2022-10-13T04:46:47;44.07;;;28.93;;
8632;SDS011;4354;49.832;10.746;2022-10-13T04:49:14;57.80;;;33.07;;
8632;SDS011;4354;49.832;10.746;2022-10-13T04:51:42;53.93;;;32.77;;
8632;SDS011;4354;49.832;10.746;2022-10-13T04:54:09;47.20;;;29.87;;
8632;SDS011;4354;49.832;10.746;2022-10-13T04:56:38;49.43;;;30.30;;
8632;SDS011;4354;49.832;10.746;2022-10-13T04:59:05;53.13;;;31.63;;
8632;SDS011;4354;49.832;10.746;2022-10-13T05:01:32;47.07;;;31.27;;
8632;SDS011;4354;49.832;10.746;2022-10-13T05:04:01;49.27;;;31.43;;
8632;SDS011;4354;49.832;10.746;2022-10-13T05:06:30;51.90;;;31.87;;
8632;SDS011;4354;49.832;10.746;2022-10-13T05:08:59;46.40;;;30.30;;
8632;SDS011;4354;49.832;10.746;2022-10-13T05:11:26;52.20;;;31.03;;
8632;SDS011;4354;49.832;10.746;2022-10-13T05:13:54;47.50;;;29.60;;
8632;SDS011;4354;49.832;10.746;2022-10-13T05:16:22;47.57;;;28.10;;
8632;SDS011;4354;49.832;10.746;2022-10-13T05:18:51;54.17;;;31.70;;
8632;SDS011;4354;49.832;10.746;2022-10-13T05:21:23;46.07;;;29.80;;
8632;SDS011;4354;49.832;10.746;2022-10-13T05:23:54;52.33;;;30.80;;
8632;SDS011;4354;49.832;10.746;2022-10-13T05:26:23;48.33;;;29.73;;
8632;SDS011;4354;49.832;10.746;2022-10-13T05:28:57;47.67;;;28.40;;
8632;SDS011;4354;49.832;10.746;2022-10-13T05:31:25;54.53;;;30.30;;
8632;SDS011;4354;49.832;10.746;2022-10-13T05:33:54;55.40;;;31.73;;
8632;SDS011;4354;49.832;10.746;2022-10-13T05:36:22;52.13;;;29.07;;
8632;SDS011;4354;49.832;10.746;2022-10-13T05:38:51;46.90;;;29.60;;
8632;SDS011;4354;49.832;10.746;2022-10-13T05:41:20;52.07;;;29.87;;
8632;SDS011;4354;49.832;10.746;2022-10-13T05:43:48;53.20;;;30.77;;
8632;SDS011;4354;49.832;10.746;2022-10-13T05:46:18;49.67;;;30.13;;
8632;SDS011;4354;49.832;10.746;2022-10-13T05:48:45;49.23;;;29.57;;
8632;SDS011;4354;49.832;10.746;2022-10-13T05:51:15;51.97;;;31.57;;
8632;SDS011;4354;49.832;10.746;2022-10-13T05:53:45;52.83;;;30.67;;
8632;SDS011;4354;49.832;10.746;2022-10-13T05:56:23;52.30;;;30.07;;
8632;SDS011;4354;49.832;10.746;2022-10-13T05:58:58;40.17;;;26.63;;
8632;SDS011;4354;49.832;10.746;2022-10-13T06:01:27;54.23;;;30.33;;
8632;SDS011;4354;49.832;10.746;2022-10-13T06:03:59;51.53;;;31.00;;
8632;SDS011;4354;49.832;10.746;2022-10-13T06:06:29;54.33;;;30.70;;
8632;SDS011;4354;49.832;10.746;2022-10-13T06:08:57;48.63;;;29.47;;
8632;SDS011;4354;49.832;10.746;2022-10-13T06:11:25;45.20;;;29.57;;
8632;SDS011;4354;49.832;10.746;2022-10-13T06:13:52;41.77;;;27.27;;
8632;SDS011;4354;49.832;10.746;2022-10-13T06:16:19;48.10;;;28.50;;
8632;SDS011;4354;49.832;10.746;2022-10-13T06:18:46;44.00;;;27.47;;
8632;SDS011;4354;49.832;10.746;2022-10-13T06:21:12;45.43;;;28.43;;
8632;SDS011;4354;49.832;10.746;2022-10-13T06:23:40;41.67;;;28.47;;
8632;SDS011;4354;49.832;10.746;2022-10-13T06:26:06;43.43;;;28.77;;
8632;SDS011;4354;49.832;10.746;2022-10-13T06:28:36;40.23;;;27.73;;
8632;SDS011;4354;49.832;10.746;2022-10-13T06:31:04;41.03;;;27.53;;
8632;SDS011;4354;49.832;10.746;2022-10-13T06:33:32;44.13;;;27.67;;
8632;SDS011;4354;49.832;10.746;2022-10-13T06:36:02;44.87;;;26.47;;
8632;SDS011;4354;49.832;10.746;2022-10-13T06:38:30;44.93;;;28.23;;
8632;SDS011;4354;49.832;10.746;2022-10-13T06:41:01;40.37;;;28.83;;
8632;SDS011;4354;49.832;10.746;2022-10-13T06:43:29;42.33;;;28.77;;
8632;SDS011;4354;49.832;10.746;2022-10-13T06:46:05;43.30;;;28.23;;
8632;SDS011;4354;49.832;10.746;2022-10-13T06:48:33;38.90;;;28.40;;
8632;SDS011;4354;49.832;10.746;2022-10-13T06:51:00;38.57;;;25.70;;
8632;SDS011;4354;49.832;10.746;2022-10-13T06:53:29;32.33;;;24.43;;
8632;SDS011;4354;49.832;10.746;2022-10-13T06:55:59;31.10;;;23.27;;
8632;SDS011;4354;49.832;10.746;2022-10-13T06:58:31;38.10;;;27.10;;
8632;SDS011;4354;49.832;10.746;2022-10-13T07:00:59;40.17;;;29.17;;
8632;SDS011;4354;49.832;10.746;2022-10-13T07:03:26;38.57;;;28.60;;
8632;SDS011;4354;49.832;10.746;2022-10-13T07:05:52;35.77;;;27.47;;
8632;SDS011;4354;49.832;10.746;2022-10-13T07:08:19;36.87;;;26.37;;
8632;SDS011;4354;49.832;10.746;2022-10-13T07:10:46;41.70;;;29.27;;
8632;SDS011;4354;49.832;10.746;2022-10-13T07:13:14;40.80;;;29.20;;
8632;SDS011;4354;49.832;10.746;2022-10-13T07:15:41;40.47;;;30.10;;
8632;SDS011;4354;49.832;10.746;2022-10-13T07:18:07;44.77;;;30.40;;
8632;SDS011;4354;49.832;10.746;2022-10-13T07:20:34;37.63;;;28.73;;
8632;SDS011;4354;49.832;10.746;2022-10-13T07:23:02;41.27;;;28.13;;
8632;SDS011;4354;49.832;10.746;2022-10-13T07:25:29;29.83;;;25.60;;
8632;SDS011;4354;49.832;10.746;2022-10-13T07:27:57;36.97;;;27.37;;
8632;SDS011;4354;49.832;10.746;2022-10-13T07:30:24;35.00;;;27.50;;
8632;SDS011;4354;49.832;10.746;2022-10-13T07:32:51;35.10;;;27.00;;
8632;SDS011;4354;49.832;10.746;2022-10-13T07:35:18;39.33;;;27.00;;
8632;SDS011;4354;49.832;10.746;2022-10-13T07:37:51;42.77;;;29.07;;
8632;SDS011;4354;49.832;10.746;2022-10-13T07:40:18;30.33;;;25.50;;
8632;SDS011;4354;49.832;10.746;2022-10-13T07:42:46;30.73;;;24.60;;
8632;SDS011;4354;49.832;10.746;2022-10-13T07:45:13;32.03;;;24.57;;
8632;SDS011;4354;49.832;10.746;2022-10-13T07:47:39;37.90;;;28.90;;
8632;SDS011;4354;49.832;10.746;2022-10-13T07:50:06;37.17;;;27.67;;
8632;SDS011;4354;49.832;10.746;2022-10-13T07:52:34;35.10;;;25.83;;
8632;SDS011;4354;49.832;10.746;2022-10-13T07:55:02;37.00;;;28.17;;
8632;SDS011;4354;49.832;10.746;2022-10-13T07:57:29;32.73;;;25.53;;
8632;SDS011;4354;49.832;10.746;2022-10-13T07:59:56;33.97;;;25.57;;
8632;SDS011;4354;49.832;10.746;2022-10-13T08:02:23;34.17;;;26.07;;
8632;SDS011;4354;49.832;10.746;2022-10-13T08:04:51;30.57;;;23.80;;
8632;SDS011;4354;49.832;10.746;2022-10-13T08:07:18;32.40;;;25.30;;
8632;SDS011;4354;49.832;10.746;2022-10-13T08:09:45;35.67;;;26.47;;
8632;SDS011;4354;49.832;10.746;2022-10-13T08:12:12;32.23;;;25.03;;
8632;SDS011;4354;49.832;10.746;2022-10-13T08:14:39;29.43;;;22.40;;
8632;SDS011;4354;49.832;10.746;2022-10-13T08:17:07;33.40;;;23.47;;
8632;SDS011;4354;49.832;10.746;2022-10-13T08:19:34;35.20;;;24.73;;
8632;SDS011;4354;49.832;10.746;2022-10-13T08:22:01;39.07;;;24.67;;
8632;SDS011;4354;49.832;10.746;2022-10-13T08:24:34;37.23;;;24.57;;
8632;SDS011;4354;49.832;10.746;2022-10-13T08:27:01;33.63;;;22.83;;
8632;SDS011;4354;49.832;10.746;2022-10-13T08:29:28;44.57;;;25.00;;
8632;SDS011;4354;49.832;10.746;2022-10-13T08:31:55;37.43;;;24.60;;
8632;SDS011;4354;49.832;10.746;2022-10-13T08:34:22;39.20;;;25.57;;
8632;SDS011;4354;49.832;10.746;2022-10-13T08:36:50;41.53;;;24.67;;
8632;SDS011;4354;49.832;10.746;2022-10-13T08:39:20;45.17;;;25.70;;
8632;SDS011;4354;49.832;10.746;2022-10-13T08:41:48;39.73;;;25.80;;
8632;SDS011;4354;49.832;10.746;2022-10-13T08:50:00;42.97;;;27.53;;
8632;SDS011;4354;49.832;10.746;2022-10-13T08:55:45;40.23;;;26.23;;
8632;SDS011;4354;49.832;10.746;2022-10-13T08:58:22;48.57;;;26.60;;
8632;SDS011;4354;49.832;10.746;2022-10-13T09:00:55;44.97;;;25.63;;
8632;SDS011;4354;49.832;10.746;2022-10-13T09:09:01;45.63;;;27.53;;
8632;SDS011;4354;49.832;10.746;2022-10-13T09:11:30;44.67;;;26.17;;
8632;SDS011;4354;49.832;10.746;2022-10-13T09:14:03;46.93;;;26.73;;
8632;SDS011;4354;49.832;10.746;2022-10-13T09:19:17;44.90;;;26.77;;
8632;SDS011;4354;49.832;10.746;2022-10-13T09:21:49;38.83;;;26.17;;
8632;SDS011;4354;49.832;10.746;2022-10-13T09:24:18;44.80;;;26.07;;
8632;SDS011;4354;49.832;10.746;2022-10-13T09:26:47;39.87;;;25.10;;
8632;SDS011;4354;49.832;10.746;2022-10-13T09:29:17;47.27;;;25.47;;
8632;SDS011;4354;49.832;10.746;2022-10-13T09:32:14;49.20;;;27.23;;
8632;SDS011;4354;49.832;10.746;2022-10-13T09:34:38;45.17;;;26.37;;
8632;SDS011;4354;49.832;10.746;2022-10-13T09:37:15;43.23;;;25.37;;
8632;SDS011;4354;49.832;10.746;2022-10-13T09:40:12;49.93;;;26.10;;
8632;SDS011;4354;49.832;10.746;2022-10-13T09:42:50;44.13;;;26.47;;
8632;SDS011;4354;49.832;10.746;2022-10-13T09:45:19;49.93;;;28.43;;
8632;SDS011;4354;49.832;10.746;2022-10-13T09:47:50;50.47;;;28.50;;
8632;SDS011;4354;49.832;10.746;2022-10-13T09:50:30;50.63;;;28.63;;
8632;SDS011;4354;49.832;10.746;2022-10-13T09:56:22;53.87;;;27.33;;
8632;SDS011;4354;49.832;10.746;2022-10-13T10:01:43;54.03;;;27.07;;
8632;SDS011;4354;49.832;10.746;2022-10-13T10:04:13;57.17;;;28.63;;
8632;SDS011;4354;49.832;10.746;2022-10-13T10:06:44;53.20;;;27.20;;
8632;SDS011;4354;49.832;10.746;2022-10-13T10:09:27;48.37;;;27.83;;
8632;SDS011;4354;49.832;10.746;2022-10-13T10:12:03;49.67;;;25.27;;
8632;SDS011;4354;49.832;10.746;2022-10-13T10:14:32;43.17;;;26.20;;
8632;SDS011;4354;49.832;10.746;2022-10-13T10:17:19;48.53;;;25.00;;
8632;SDS011;4354;49.832;10.746;2022-10-13T10:25:37;39.70;;;22.87;;
8632;SDS011;4354;49.832;10.746;2022-10-13T10:33:50;38.95;;;22.10;;
8632;SDS011;4354;49.832;10.746;2022-10-13T10:36:14;33.92;;;21.70;;
8632;SDS011;4354;49.832;10.746;2022-10-13T10:44:38;31.40;;;20.02;;
8632;SDS011;4354;49.832;10.746;2022-10-13T10:50:07;29.60;;;18.00;;
8632;SDS011;4354;49.832;10.746;2022-10-13T10:55:23;32.55;;;19.40;;
8632;SDS011;4354;49.832;10.746;2022-10-13T11:00:51;26.13;;;18.45;;
8632;SDS011;4354;49.832;10.746;2022-10-13T11:03:33;27.02;;;18.67;;
8632;SDS011;4354;49.832;10.746;2022-10-13T11:06:03;28.67;;;19.52;;
8632;SDS011;4354;49.832;10.746;2022-10-13T11:08:46;27.70;;;18.83;;
8632;SDS011;4354;49.832;10.746;2022-10-13T11:19:02;30.70;;;20.73;;
8632;SDS011;4354;49.832;10.746;2022-10-13T11:35:11;32.67;;;21.70;;
8632;SDS011;4354;49.832;10.746;2022-10-13T11:40:34;32.88;;;22.13;;
8632;SDS011;4354;49.832;10.746;2022-10-13T11:53:51;27.83;;;21.73;;
8632;SDS011;4354;49.832;10.746;2022-10-13T11:56:46;28.63;;;21.55;;
8632;SDS011;4354;49.832;10.746;2022-10-13T11:59:36;32.40;;;22.58;;
8632;SDS011;4354;49.832;10.746;2022-10-13T12:02:11;29.25;;;21.45;;
8632;SDS011;4354;49.832;10.746;2022-10-13T12:04:57;28.70;;;21.77;;
8632;SDS011;4354;49.832;10.746;2022-10-13T12:07:31;31.85;;;22.10;;
8632;SDS011;4354;49.832;10.746;2022-10-13T12:10:04;31.55;;;22.63;;
8632;SDS011;4354;49.832;10.746;2022-10-13T12:12:33;31.08;;;22.52;;
8632;SDS011;4354;49.832;10.746;2022-10-13T12:15:00;29.45;;;22.85;;
8632;SDS011;4354;49.832;10.746;2022-10-13T12:17:32;33.50;;;23.27;;
8632;SDS011;4354;49.832;10.746;2022-10-13T12:20:20;29.30;;;22.23;;
8632;SDS011;4354;49.832;10.746;2022-10-13T12:22:50;30.38;;;21.50;;
8632;SDS011;4354;49.832;10.746;2022-10-13T12:25:18;27.67;;;21.60;;
8632;SDS011;4354;49.832;10.746;2022-10-13T12:27:49;28.08;;;20.35;;
8632;SDS011;4354;49.832;10.746;2022-10-13T12:32:50;29.08;;;21.10;;
8632;SDS011;4354;49.832;10.746;2022-10-13T12:35:20;27.02;;;21.02;;
8632;SDS011;4354;49.832;10.746;2022-10-13T12:37:50;29.30;;;20.08;;
8632;SDS011;4354;49.832;10.746;2022-10-13T12:40:19;27.55;;;20.05;;
8632;SDS011;4354;49.832;10.746;2022-10-13T12:42:47;29.98;;;20.15;;
8632;SDS011;4354;49.832;10.746;2022-10-13T12:45:15;24.67;;;19.98;;
8632;SDS011;4354;49.832;10.746;2022-10-13T12:47:52;25.88;;;19.40;;
8632;SDS011;4354;49.832;10.746;2022-10-13T12:55:34;26.20;;;20.83;;
8632;SDS011;4354;49.832;10.746;2022-10-13T12:58:32;26.30;;;21.33;;
8632;SDS011;4354;49.832;10.746;2022-10-13T13:03:34;28.23;;;21.88;;
8632;SDS011;4354;49.832;10.746;2022-10-13T13:06:19;25.08;;;22.40;;
8632;SDS011;4354;49.832;10.746;2022-10-13T13:09:05;28.80;;;22.42;;
8632;SDS011;4354;49.832;10.746;2022-10-13T13:11:45;26.17;;;22.38;;
8632;SDS011;4354;49.832;10.746;2022-10-13T13:20:27;26.27;;;23.13;;
8632;SDS011;4354;49.832;10.746;2022-10-13T13:22:54;30.00;;;25.70;;
8632;SDS011;4354;49.832;10.746;2022-10-13T13:25:22;30.80;;;24.92;;
8632;SDS011;4354;49.832;10.746;2022-10-13T13:27:49;27.98;;;23.30;;
8632;SDS011;4354;49.832;10.746;2022-10-13T13:30:18;25.50;;;22.42;;
8632;SDS011;4354;49.832;10.746;2022-10-13T13:32:47;26.40;;;23.58;;
8632;SDS011;4354;49.832;10.746;2022-10-13T13:35:15;27.45;;;22.50;;
8632;SDS011;4354;49.832;10.746;2022-10-13T13:37:46;27.65;;;22.02;;
8632;SDS011;4354;49.832;10.746;2022-10-13T13:40:22;28.98;;;23.85;;
8632;SDS011;4354;49.832;10.746;2022-10-13T13:42:50;25.52;;;22.73;;
8632;SDS011;4354;49.832;10.746;2022-10-13T13:45:18;28.85;;;23.40;;
8632;SDS011;4354;49.832;10.746;2022-10-13T13:47:48;29.13;;;23.95;;
8632;SDS011;4354;49.832;10.746;2022-10-13T13:50:23;25.85;;;23.15;;
8632;SDS011;4354;49.832;10.746;2022-10-13T13:52:51;29.35;;;22.98;;
8632;SDS011;4354;49.832;10.746;2022-10-13T13:55:18;27.73;;;23.40;;
8632;SDS011;4354;49.832;10.746;2022-10-13T13:57:45;26.50;;;21.85;;
8632;SDS011;4354;49.832;10.746;2022-10-13T14:00:13;22.67;;;20.33;;
8632;SDS011;4354;49.832;10.746;2022-10-13T14:02:41;26.17;;;21.85;;
8632;SDS011;4354;49.832;10.746;2022-10-13T14:05:09;27.33;;;22.27;;
8632;SDS011;4354;49.832;10.746;2022-10-13T14:07:37;27.60;;;22.40;;
8632;SDS011;4354;49.832;10.746;2022-10-13T14:10:05;26.20;;;20.98;;
8632;SDS011;4354;49.832;10.746;2022-10-13T14:12:33;25.17;;;21.35;;
8632;SDS011;4354;49.832;10.746;2022-10-13T14:15:01;24.45;;;21.10;;
8632;SDS011;4354;49.832;10.746;2022-10-13T14:17:28;27.80;;;21.58;;
8632;SDS011;4354;49.832;10.746;2022-10-13T14:19:55;24.50;;;21.35;;
8632;SDS011;4354;49.832;10.746;2022-10-13T14:22:21;24.33;;;20.98;;
8632;SDS011;4354;49.832;10.746;2022-10-13T14:24:49;25.30;;;21.17;;
8632;SDS011;4354;49.832;10.746;2022-10-13T14:27:16;25.92;;;20.63;;
8632;SDS011;4354;49.832;10.746;2022-10-13T14:29:43;25.10;;;20.48;;
8632;SDS011;4354;49.832;10.746;2022-10-13T14:32:10;23.27;;;20.88;;
8632;SDS011;4354;49.832;10.746;2022-10-13T14:34:37;25.85;;;22.33;;
8632;SDS011;4354;49.832;10.746;2022-10-13T14:37:04;28.73;;;22.85;;
8632;SDS011;4354;49.832;10.746;2022-10-13T14:39:37;26.23;;;22.02;;
8632;SDS011;4354;49.832;10.746;2022-10-13T14:42:04;25.50;;;22.80;;
8632;SDS011;4354;49.832;10.746;2022-10-13T14:44:31;28.27;;;24.27;;
8632;SDS011;4354;49.832;10.746;2022-10-13T14:46:58;23.63;;;21.10;;
8632;SDS011;4354;49.832;10.746;2022-10-13T14:49:25;26.55;;;21.58;;
8632;SDS011;4354;49.832;10.746;2022-10-13T14:51:52;27.17;;;21.83;;
8632;SDS011;4354;49.832;10.746;2022-10-13T14:54:19;23.67;;;20.67;;
8632;SDS011;4354;49.832;10.746;2022-10-13T14:56:47;22.93;;;20.23;;
8632;SDS011;4354;49.832;10.746;2022-10-13T14:59:13;24.57;;;21.97;;
8632;SDS011;4354;49.832;10.746;2022-10-13T15:01:40;27.33;;;22.10;;
8632;SDS011;4354;49.832;10.746;2022-10-13T15:04:08;28.23;;;21.70;;
8632;SDS011;4354;49.832;10.746;2022-10-13T15:06:35;25.53;;;20.57;;
8632;SDS011;4354;49.832;10.746;2022-10-13T15:09:05;22.33;;;19.83;;
8632;SDS011;4354;49.832;10.746;2022-10-13T15:11:34;27.97;;;22.07;;
8632;SDS011;4354;49.832;10.746;2022-10-13T15:14:01;23.77;;;19.90;;
8632;SDS011;4354;49.832;10.746;2022-10-13T15:16:29;21.50;;;18.80;;
8632;SDS011;4354;49.832;10.746;2022-10-13T15:18:59;21.57;;;18.13;;
8632;SDS011;4354;49.832;10.746;2022-10-13T15:21:26;21.83;;;19.50;;
8632;SDS011;4354;49.832;10.746;2022-10-13T15:23:56;17.63;;;15.80;;
8632;SDS011;4354;49.832;10.746;2022-10-13T15:26:26;20.60;;;17.88;;
8632;SDS011;4354;49.832;10.746;2022-10-13T15:28:53;23.03;;;17.47;;
8632;SDS011;4354;49.832;10.746;2022-10-13T15:31:20;18.27;;;16.40;;
8632;SDS011;4354;49.832;10.746;2022-10-13T15:33:50;22.80;;;19.93;;
8632;SDS011;4354;49.832;10.746;2022-10-13T15:36:18;24.70;;;19.45;;
8632;SDS011;4354;49.832;10.746;2022-10-13T15:38:46;23.95;;;21.20;;
8632;SDS011;4354;49.832;10.746;2022-10-13T15:41:13;19.97;;;17.13;;
8632;SDS011;4354;49.832;10.746;2022-10-13T15:43:41;20.33;;;17.73;;
8632;SDS011;4354;49.832;10.746;2022-10-13T15:46:11;22.27;;;17.87;;
8632;SDS011;4354;49.832;10.746;2022-10-13T15:48:51;26.30;;;23.37;;
8632;SDS011;4354;49.832;10.746;2022-10-13T15:51:19;28.87;;;23.83;;
8632;SDS011;4354;49.832;10.746;2022-10-13T15:53:49;24.65;;;21.65;;
8632;SDS011;4354;49.832;10.746;2022-10-13T15:56:16;23.80;;;21.30;;
8632;SDS011;4354;49.832;10.746;2022-10-13T15:58:43;22.43;;;19.07;;
8632;SDS011;4354;49.832;10.746;2022-10-13T16:01:11;26.27;;;20.37;;
8632;SDS011;4354;49.832;10.746;2022-10-13T16:03:39;23.13;;;20.73;;
8632;SDS011;4354;49.832;10.746;2022-10-13T16:06:08;26.07;;;20.93;;
8632;SDS011;4354;49.832;10.746;2022-10-13T16:08:37;21.27;;;19.00;;
8632;SDS011;4354;49.832;10.746;2022-10-13T16:11:16;21.00;;;17.93;;
8632;SDS011;4354;49.832;10.746;2022-10-13T16:13:45;22.50;;;19.50;;
8632;SDS011;4354;49.832;10.746;2022-10-13T16:16:13;26.33;;;22.53;;
8632;SDS011;4354;49.832;10.746;2022-10-13T16:18:40;24.53;;;21.70;;
8632;SDS011;4354;49.832;10.746;2022-10-13T16:21:18;23.00;;;20.67;;
8632;SDS011;4354;49.832;10.746;2022-10-13T16:23:47;22.63;;;20.30;;
8632;SDS011;4354;49.832;10.746;2022-10-13T16:26:15;20.97;;;18.20;;
8632;SDS011;4354;49.832;10.746;2022-10-13T16:28:43;24.33;;;20.23;;
8632;SDS011;4354;49.832;10.746;2022-10-13T16:31:12;25.27;;;22.30;;
8632;SDS011;4354;49.832;10.746;2022-10-13T16:33:40;24.10;;;21.57;;
8632;SDS011;4354;49.832;10.746;2022-10-13T16:36:16;25.87;;;23.00;;
8632;SDS011;4354;49.832;10.746;2022-10-13T16:38:44;28.00;;;24.77;;
8632;SDS011;4354;49.832;10.746;2022-10-13T16:41:14;27.03;;;23.93;;
8632;SDS011;4354;49.832;10.746;2022-10-13T16:43:42;23.93;;;21.33;;
8632;SDS011;4354;49.832;10.746;2022-10-13T16:46:11;27.23;;;21.70;;
8632;SDS011;4354;49.832;10.746;2022-10-13T16:48:40;25.07;;;21.37;;
8632;SDS011;4354;49.832;10.746;2022-10-13T16:51:09;25.23;;;21.23;;
8632;SDS011;4354;49.832;10.746;2022-10-13T16:53:40;23.83;;;20.43;;